sensor_id;sensor_type;location;lat;lon;timestamp;temperature;humidity
25128;DHT22;13107;51.304;6.866;2022-12-07T00:02:37;4.90;99.90
25128;DHT22;13107;51.304;6.866;2022-12-07T00:06:44;4.90;99.90
25128;DHT22;13107;51.304;6.866;2022-12-07T00:10:46;4.90;99.90
25128;DHT22;13107;51.304;6.866;2022-12-07T00:14:49;4.80;99.90
25128;DHT22;13107;51.304;6.866;2022-12-07T00:18:52;4.90;99.90
25128;DHT22;13107;51.304;6.866;2022-12-07T00:22:54;4.90;99.90
25128;DHT22;13107;51.304;6.866;2022-12-07T00:26:56;4.90;99.90
25128;DHT22;13107;51.304;6.866;2022-12-07T00:31:03;5.00;99.90
25128;DHT22;13107;51.304;6.866;2022-12-07T00:35:06;5.00;99.90
25128;DHT22;13107;51.304;6.866;2022-12-07T00:39:08;5.00;99.90
25128;DHT22;13107;51.304;6.866;2022-12-07T00:43:10;4.90;99.90
25128;DHT22;13107;51.304;6.866;2022-12-07T00:47:12;4.90;99.90
25128;DHT22;13107;51.304;6.866;2022-12-07T00:51:16;5.00;99.90
25128;DHT22;13107;51.304;6.866;2022-12-07T00:55:17;5.00;99.90
25128;DHT22;13107;51.304;6.866;2022-12-07T00:59:19;5.00;99.90
25128;DHT22;13107;51.304;6.866;2022-12-07T01:03:21;5.00;99.90
25128;DHT22;13107;51.304;6.866;2022-12-07T01:07:22;5.00;99.90
25128;DHT22;13107;51.304;6.866;2022-12-07T01:11:27;5.00;99.90
25128;DHT22;13107;51.304;6.866;2022-12-07T01:15:29;5.00;99.90
25128;DHT22;13107;51.304;6.866;2022-12-07T01:19:30;4.90;99.90
25128;DHT22;13107;51.304;6.866;2022-12-07T01:23:33;5.00;99.90
25128;DHT22;13107;51.304;6.866;2022-12-07T01:27:36;5.00;99.90
25128;DHT22;13107;51.304;6.866;2022-12-07T01:31:38;5.00;99.90
25128;DHT22;13107;51.304;6.866;2022-12-07T01:35:39;4.90;99.90
25128;DHT22;13107;51.304;6.866;2022-12-07T01:39:41;5.00;99.90
25128;DHT22;13107;51.304;6.866;2022-12-07T01:44:19;4.90;99.90
25128;DHT22;13107;51.304;6.866;2022-12-07T01:48:25;5.00;99.90
25128;DHT22;13107;51.304;6.866;2022-12-07T01:52:30;5.10;99.90
25128;DHT22;13107;51.304;6.866;2022-12-07T01:56:33;5.00;99.90
25128;DHT22;13107;51.304;6.866;2022-12-07T02:00:35;5.00;99.90
25128;DHT22;13107;51.304;6.866;2022-12-07T02:04:37;5.00;99.90
25128;DHT22;13107;51.304;6.866;2022-12-07T02:08:39;5.10;99.90
25128;DHT22;13107;51.304;6.866;2022-12-07T02:12:42;5.00;99.90
25128;DHT22;13107;51.304;6.866;2022-12-07T02:16:51;5.00;99.90
25128;DHT22;13107;51.304;6.866;2022-12-07T02:21:42;4.90;99.90
25128;DHT22;13107;51.304;6.866;2022-12-07T02:33:45;5.00;99.90
25128;DHT22;13107;51.304;6.866;2022-12-07T02:37:57;4.90;99.90
25128;DHT22;13107;51.304;6.866;2022-12-07T02:42:12;4.90;99.90
25128;DHT22;13107;51.304;6.866;2022-12-07T02:46:20;5.00;99.90
25128;DHT22;13107;51.304;6.866;2022-12-07T02:50:22;4.90;99.90
25128;DHT22;13107;51.304;6.866;2022-12-07T02:54:24;4.90;99.90
25128;DHT22;13107;51.304;6.866;2022-12-07T02:58:35;4.80;99.90
25128;DHT22;13107;51.304;6.866;2022-12-07T03:03:00;4.80;99.90
25128;DHT22;13107;51.304;6.866;2022-12-07T03:11:29;4.90;99.90
25128;DHT22;13107;51.304;6.866;2022-12-07T03:15:55;4.80;99.90
25128;DHT22;13107;51.304;6.866;2022-12-07T03:20:02;4.70;99.90
25128;DHT22;13107;51.304;6.866;2022-12-07T03:24:08;4.80;99.90
25128;DHT22;13107;51.304;6.866;2022-12-07T03:28:11;4.70;99.90
25128;DHT22;13107;51.304;6.866;2022-12-07T03:32:28;4.70;99.90
25128;DHT22;13107;51.304;6.866;2022-12-07T03:36:43;4.70;99.90
25128;DHT22;13107;51.304;6.866;2022-12-07T03:40:54;4.80;99.90
25128;DHT22;13107;51.304;6.866;2022-12-07T03:45:02;4.70;99.90
25128;DHT22;13107;51.304;6.866;2022-12-07T03:53:46;4.70;99.90
25128;DHT22;13107;51.304;6.866;2022-12-07T03:57:53;4.60;99.90
25128;DHT22;13107;51.304;6.866;2022-12-07T04:02:01;4.60;99.90
25128;DHT22;13107;51.304;6.866;2022-12-07T04:06:03;4.70;99.90
25128;DHT22;13107;51.304;6.866;2022-12-07T04:10:05;4.70;99.90
25128;DHT22;13107;51.304;6.866;2022-12-07T04:14:07;4.70;99.90
25128;DHT22;13107;51.304;6.866;2022-12-07T04:18:21;4.70;99.90
25128;DHT22;13107;51.304;6.866;2022-12-07T04:22:23;4.70;99.90
25128;DHT22;13107;51.304;6.866;2022-12-07T04:26:24;4.60;99.90
25128;DHT22;13107;51.304;6.866;2022-12-07T04:30:26;4.60;99.90
25128;DHT22;13107;51.304;6.866;2022-12-07T04:34:28;4.60;99.90
25128;DHT22;13107;51.304;6.866;2022-12-07T04:38:30;4.50;99.90
25128;DHT22;13107;51.304;6.866;2022-12-07T04:42:31;4.50;99.90
25128;DHT22;13107;51.304;6.866;2022-12-07T04:46:33;4.50;99.90
25128;DHT22;13107;51.304;6.866;2022-12-07T04:50:35;4.50;99.90
25128;DHT22;13107;51.304;6.866;2022-12-07T04:54:46;4.50;99.90
25128;DHT22;13107;51.304;6.866;2022-12-07T04:58:48;4.40;99.90
25128;DHT22;13107;51.304;6.866;2022-12-07T05:02:50;4.30;99.90
25128;DHT22;13107;51.304;6.866;2022-12-07T05:06:52;4.20;99.90
25128;DHT22;13107;51.304;6.866;2022-12-07T05:10:54;4.10;99.90
25128;DHT22;13107;51.304;6.866;2022-12-07T05:14:55;4.20;99.90
25128;DHT22;13107;51.304;6.866;2022-12-07T05:18:57;4.10;99.90
25128;DHT22;13107;51.304;6.866;2022-12-07T05:22:59;4.10;99.90
25128;DHT22;13107;51.304;6.866;2022-12-07T05:27:01;4.10;99.90
25128;DHT22;13107;51.304;6.866;2022-12-07T05:31:03;4.20;99.90
25128;DHT22;13107;51.304;6.866;2022-12-07T05:35:05;4.20;99.90
25128;DHT22;13107;51.304;6.866;2022-12-07T05:39:07;4.10;99.90
25128;DHT22;13107;51.304;6.866;2022-12-07T05:43:09;4.20;99.90
25128;DHT22;13107;51.304;6.866;2022-12-07T05:47:11;4.10;99.90
25128;DHT22;13107;51.304;6.866;2022-12-07T05:51:13;4.20;99.90
25128;DHT22;13107;51.304;6.866;2022-12-07T05:55:15;4.20;99.90
25128;DHT22;13107;51.304;6.866;2022-12-07T05:59:17;4.20;99.90
25128;DHT22;13107;51.304;6.866;2022-12-07T06:03:24;4.20;99.90
25128;DHT22;13107;51.304;6.866;2022-12-07T06:07:26;4.10;99.90
25128;DHT22;13107;51.304;6.866;2022-12-07T06:11:28;4.10;99.90
25128;DHT22;13107;51.304;6.866;2022-12-07T06:15:48;4.10;99.90
25128;DHT22;13107;51.304;6.866;2022-12-07T06:19:50;4.10;99.90
25128;DHT22;13107;51.304;6.866;2022-12-07T06:23:52;4.10;99.90
25128;DHT22;13107;51.304;6.866;2022-12-07T06:27:54;4.10;99.90
25128;DHT22;13107;51.304;6.866;2022-12-07T06:31:57;4.00;99.90
25128;DHT22;13107;51.304;6.866;2022-12-07T06:35:58;4.10;99.90
25128;DHT22;13107;51.304;6.866;2022-12-07T06:40:00;4.10;99.90
25128;DHT22;13107;51.304;6.866;2022-12-07T06:44:03;4.10;99.90
25128;DHT22;13107;51.304;6.866;2022-12-07T06:48:05;4.10;99.90
25128;DHT22;13107;51.304;6.866;2022-12-07T06:52:07;4.20;99.90
25128;DHT22;13107;51.304;6.866;2022-12-07T06:56:08;4.10;99.90
25128;DHT22;13107;51.304;6.866;2022-12-07T07:00:10;4.10;99.90
25128;DHT22;13107;51.304;6.866;2022-12-07T07:04:20;4.00;99.90
25128;DHT22;13107;51.304;6.866;2022-12-07T07:08:22;4.00;99.90
25128;DHT22;13107;51.304;6.866;2022-12-07T07:12:24;3.90;99.90
25128;DHT22;13107;51.304;6.866;2022-12-07T07:16:26;4.00;99.90
25128;DHT22;13107;51.304;6.866;2022-12-07T07:20:28;3.90;99.90
25128;DHT22;13107;51.304;6.866;2022-12-07T07:24:30;3.90;99.90
25128;DHT22;13107;51.304;6.866;2022-12-07T07:28:31;3.90;99.90
25128;DHT22;13107;51.304;6.866;2022-12-07T07:32:33;3.90;99.90
25128;DHT22;13107;51.304;6.866;2022-12-07T07:36:35;3.90;99.90
25128;DHT22;13107;51.304;6.866;2022-12-07T07:40:37;3.90;99.90
25128;DHT22;13107;51.304;6.866;2022-12-07T07:44:39;3.80;99.90
25128;DHT22;13107;51.304;6.866;2022-12-07T07:48:40;3.70;99.90
25128;DHT22;13107;51.304;6.866;2022-12-07T07:52:42;3.60;99.90
25128;DHT22;13107;51.304;6.866;2022-12-07T07:56:44;3.60;99.90
25128;DHT22;13107;51.304;6.866;2022-12-07T08:00:46;3.50;99.90
25128;DHT22;13107;51.304;6.866;2022-12-07T08:04:48;3.50;99.90
25128;DHT22;13107;51.304;6.866;2022-12-07T08:08:49;3.60;99.90
25128;DHT22;13107;51.304;6.866;2022-12-07T08:12:51;3.60;99.90
25128;DHT22;13107;51.304;6.866;2022-12-07T08:17:12;3.60;99.90
25128;DHT22;13107;51.304;6.866;2022-12-07T08:21:15;3.70;99.90
25128;DHT22;13107;51.304;6.866;2022-12-07T08:25:17;3.80;99.90
25128;DHT22;13107;51.304;6.866;2022-12-07T08:29:19;3.70;99.90
25128;DHT22;13107;51.304;6.866;2022-12-07T08:33:21;3.80;99.90
25128;DHT22;13107;51.304;6.866;2022-12-07T08:37:24;3.90;99.90
25128;DHT22;13107;51.304;6.866;2022-12-07T08:41:26;4.00;99.90
25128;DHT22;13107;51.304;6.866;2022-12-07T08:45:27;3.90;99.90
25128;DHT22;13107;51.304;6.866;2022-12-07T08:49:41;4.00;99.90
25128;DHT22;13107;51.304;6.866;2022-12-07T08:53:45;3.90;99.90
25128;DHT22;13107;51.304;6.866;2022-12-07T08:57:47;4.00;99.90
25128;DHT22;13107;51.304;6.866;2022-12-07T09:01:49;4.00;99.90
25128;DHT22;13107;51.304;6.866;2022-12-07T09:05:51;4.10;99.90
25128;DHT22;13107;51.304;6.866;2022-12-07T09:09:54;4.20;99.90
25128;DHT22;13107;51.304;6.866;2022-12-07T09:13:56;4.30;99.90
25128;DHT22;13107;51.304;6.866;2022-12-07T09:17:57;4.40;99.90
25128;DHT22;13107;51.304;6.866;2022-12-07T09:21:59;4.50;99.90
25128;DHT22;13107;51.304;6.866;2022-12-07T09:26:04;4.50;99.90
25128;DHT22;13107;51.304;6.866;2022-12-07T09:30:12;4.60;99.90
25128;DHT22;13107;51.304;6.866;2022-12-07T09:34:13;4.60;99.90
25128;DHT22;13107;51.304;6.866;2022-12-07T09:38:16;4.60;99.90
25128;DHT22;13107;51.304;6.866;2022-12-07T09:42:36;4.80;99.90
25128;DHT22;13107;51.304;6.866;2022-12-07T09:46:40;5.10;99.90
25128;DHT22;13107;51.304;6.866;2022-12-07T09:50:43;5.10;99.90
25128;DHT22;13107;51.304;6.866;2022-12-07T09:54:47;5.30;99.90
25128;DHT22;13107;51.304;6.866;2022-12-07T09:58:58;5.30;99.90
25128;DHT22;13107;51.304;6.866;2022-12-07T10:03:02;5.40;99.90
25128;DHT22;13107;51.304;6.866;2022-12-07T10:07:03;5.40;99.90
25128;DHT22;13107;51.304;6.866;2022-12-07T10:11:05;5.30;99.90
25128;DHT22;13107;51.304;6.866;2022-12-07T10:15:11;5.30;99.90
25128;DHT22;13107;51.304;6.866;2022-12-07T10:19:44;5.30;99.90
25128;DHT22;13107;51.304;6.866;2022-12-07T10:28:15;5.20;99.90
25128;DHT22;13107;51.304;6.866;2022-12-07T10:36:35;5.40;99.90
25128;DHT22;13107;51.304;6.866;2022-12-07T10:40:37;5.40;99.90
25128;DHT22;13107;51.304;6.866;2022-12-07T10:44:45;5.40;99.90
25128;DHT22;13107;51.304;6.866;2022-12-07T10:53:32;5.50;99.90
25128;DHT22;13107;51.304;6.866;2022-12-07T10:58:05;5.70;99.90
25128;DHT22;13107;51.304;6.866;2022-12-07T11:07:01;6.40;99.90
25128;DHT22;13107;51.304;6.866;2022-12-07T11:11:27;6.50;99.90
25128;DHT22;13107;51.304;6.866;2022-12-07T11:15:55;6.60;99.90
25128;DHT22;13107;51.304;6.866;2022-12-07T11:29:16;6.60;99.90
25128;DHT22;13107;51.304;6.866;2022-12-07T11:37:37;6.50;99.90
25128;DHT22;13107;51.304;6.866;2022-12-07T11:41:42;6.30;99.90
25128;DHT22;13107;51.304;6.866;2022-12-07T11:45:47;6.40;99.90
25128;DHT22;13107;51.304;6.866;2022-12-07T11:50:01;6.30;99.90
25128;DHT22;13107;51.304;6.866;2022-12-07T11:54:29;6.30;99.90
25128;DHT22;13107;51.304;6.866;2022-12-07T12:03:09;6.30;99.90
25128;DHT22;13107;51.304;6.866;2022-12-07T12:07:17;6.40;99.90
25128;DHT22;13107;51.304;6.866;2022-12-07T12:16:38;6.60;99.90
25128;DHT22;13107;51.304;6.866;2022-12-07T12:20:55;6.50;99.90
25128;DHT22;13107;51.304;6.866;2022-12-07T12:24:57;6.50;99.90
25128;DHT22;13107;51.304;6.866;2022-12-07T12:29:03;6.40;99.90
25128;DHT22;13107;51.304;6.866;2022-12-07T12:33:31;6.40;99.90
25128;DHT22;13107;51.304;6.866;2022-12-07T12:51:36;6.40;99.90
25128;DHT22;13107;51.304;6.866;2022-12-07T12:59:59;6.50;99.90
25128;DHT22;13107;51.304;6.866;2022-12-07T13:04:02;6.40;99.90
25128;DHT22;13107;51.304;6.866;2022-12-07T13:08:21;6.40;99.90
25128;DHT22;13107;51.304;6.866;2022-12-07T13:12:31;5.90;99.90
25128;DHT22;13107;51.304;6.866;2022-12-07T13:16:37;5.60;99.90
25128;DHT22;13107;51.304;6.866;2022-12-07T13:20:45;5.60;99.90
25128;DHT22;13107;51.304;6.866;2022-12-07T13:24:47;5.50;99.90
25128;DHT22;13107;51.304;6.866;2022-12-07T13:29:17;5.60;99.90
25128;DHT22;13107;51.304;6.866;2022-12-07T13:33:21;5.60;99.90
25128;DHT22;13107;51.304;6.866;2022-12-07T13:37:28;5.60;99.90
25128;DHT22;13107;51.304;6.866;2022-12-07T13:41:42;5.60;99.90
25128;DHT22;13107;51.304;6.866;2022-12-07T13:45:44;5.70;99.90
25128;DHT22;13107;51.304;6.866;2022-12-07T13:49:54;5.70;99.90
25128;DHT22;13107;51.304;6.866;2022-12-07T13:54:06;5.80;99.90
25128;DHT22;13107;51.304;6.866;2022-12-07T13:58:10;5.90;99.90
25128;DHT22;13107;51.304;6.866;2022-12-07T14:02:28;6.00;99.90
25128;DHT22;13107;51.304;6.866;2022-12-07T14:06:36;6.10;99.90
25128;DHT22;13107;51.304;6.866;2022-12-07T14:10:57;6.10;99.90
25128;DHT22;13107;51.304;6.866;2022-12-07T14:15:01;6.10;99.90
25128;DHT22;13107;51.304;6.866;2022-12-07T14:19:06;6.10;99.90
25128;DHT22;13107;51.304;6.866;2022-12-07T14:23:27;6.00;99.90
25128;DHT22;13107;51.304;6.866;2022-12-07T14:27:33;5.90;99.90
25128;DHT22;13107;51.304;6.866;2022-12-07T14:31:37;5.90;99.90
25128;DHT22;13107;51.304;6.866;2022-12-07T14:35:39;5.80;99.90
25128;DHT22;13107;51.304;6.866;2022-12-07T14:39:41;5.80;99.90
25128;DHT22;13107;51.304;6.866;2022-12-07T14:43:43;5.80;99.90
25128;DHT22;13107;51.304;6.866;2022-12-07T14:48:05;5.70;99.90
25128;DHT22;13107;51.304;6.866;2022-12-07T14:52:29;5.60;99.90
25128;DHT22;13107;51.304;6.866;2022-12-07T14:56:51;5.40;99.90
25128;DHT22;13107;51.304;6.866;2022-12-07T15:00:53;5.20;99.90
25128;DHT22;13107;51.304;6.866;2022-12-07T15:04:54;5.10;99.90
25128;DHT22;13107;51.304;6.866;2022-12-07T15:08:56;5.00;99.90
25128;DHT22;13107;51.304;6.866;2022-12-07T15:12:59;4.90;99.90
25128;DHT22;13107;51.304;6.866;2022-12-07T15:17:21;4.90;99.90
25128;DHT22;13107;51.304;6.866;2022-12-07T15:21:32;4.80;99.90
25128;DHT22;13107;51.304;6.866;2022-12-07T15:25:34;4.70;99.90
25128;DHT22;13107;51.304;6.866;2022-12-07T15:29:35;4.60;99.90
25128;DHT22;13107;51.304;6.866;2022-12-07T15:33:38;4.50;99.90
25128;DHT22;13107;51.304;6.866;2022-12-07T15:37:40;4.30;99.90
25128;DHT22;13107;51.304;6.866;2022-12-07T15:41:42;4.20;99.90
25128;DHT22;13107;51.304;6.866;2022-12-07T15:45:43;4.20;99.90
25128;DHT22;13107;51.304;6.866;2022-12-07T15:49:45;4.20;99.90
25128;DHT22;13107;51.304;6.866;2022-12-07T15:53:47;4.10;99.90
25128;DHT22;13107;51.304;6.866;2022-12-07T15:57:48;4.10;99.90
25128;DHT22;13107;51.304;6.866;2022-12-07T16:01:50;4.10;99.90
25128;DHT22;13107;51.304;6.866;2022-12-07T16:05:52;4.40;99.90
25128;DHT22;13107;51.304;6.866;2022-12-07T16:09:54;4.40;99.90
25128;DHT22;13107;51.304;6.866;2022-12-07T16:13:56;4.60;99.90
25128;DHT22;13107;51.304;6.866;2022-12-07T16:17:58;4.60;99.90
25128;DHT22;13107;51.304;6.866;2022-12-07T16:21:59;4.60;99.90
25128;DHT22;13107;51.304;6.866;2022-12-07T16:26:06;4.70;99.90
25128;DHT22;13107;51.304;6.866;2022-12-07T16:30:08;4.90;99.90
25128;DHT22;13107;51.304;6.866;2022-12-07T16:34:10;4.90;99.90
25128;DHT22;13107;51.304;6.866;2022-12-07T16:38:12;5.00;99.90
25128;DHT22;13107;51.304;6.866;2022-12-07T16:42:13;5.10;99.90
25128;DHT22;13107;51.304;6.866;2022-12-07T16:46:15;5.00;99.90
25128;DHT22;13107;51.304;6.866;2022-12-07T16:50:17;5.10;99.90
25128;DHT22;13107;51.304;6.866;2022-12-07T16:54:19;5.00;99.90
25128;DHT22;13107;51.304;6.866;2022-12-07T16:58:20;5.00;99.90
25128;DHT22;13107;51.304;6.866;2022-12-07T17:02:22;5.00;99.90
25128;DHT22;13107;51.304;6.866;2022-12-07T17:06:26;5.10;99.90
25128;DHT22;13107;51.304;6.866;2022-12-07T17:10:28;5.20;99.90
25128;DHT22;13107;51.304;6.866;2022-12-07T17:14:30;5.10;99.90
25128;DHT22;13107;51.304;6.866;2022-12-07T17:18:50;5.10;99.90
25128;DHT22;13107;51.304;6.866;2022-12-07T17:22:53;5.10;99.90
25128;DHT22;13107;51.304;6.866;2022-12-07T17:26:54;5.20;99.90
25128;DHT22;13107;51.304;6.866;2022-12-07T17:30:56;5.10;99.90
25128;DHT22;13107;51.304;6.866;2022-12-07T17:34:58;5.20;99.90
25128;DHT22;13107;51.304;6.866;2022-12-07T17:39:01;5.20;99.90
25128;DHT22;13107;51.304;6.866;2022-12-07T17:43:07;5.20;99.90
25128;DHT22;13107;51.304;6.866;2022-12-07T17:47:09;5.10;99.90
25128;DHT22;13107;51.304;6.866;2022-12-07T17:51:11;5.00;99.90
25128;DHT22;13107;51.304;6.866;2022-12-07T17:55:32;5.00;99.90
25128;DHT22;13107;51.304;6.866;2022-12-07T17:59:53;5.00;99.90
25128;DHT22;13107;51.304;6.866;2022-12-07T18:03:55;5.10;99.90
25128;DHT22;13107;51.304;6.866;2022-12-07T18:07:57;5.00;99.90
25128;DHT22;13107;51.304;6.866;2022-12-07T18:11:59;5.00;99.90
25128;DHT22;13107;51.304;6.866;2022-12-07T18:16:09;4.90;99.90
25128;DHT22;13107;51.304;6.866;2022-12-07T18:20:12;4.90;99.90
25128;DHT22;13107;51.304;6.866;2022-12-07T18:24:15;4.90;99.90
25128;DHT22;13107;51.304;6.866;2022-12-07T18:28:17;4.90;99.90
25128;DHT22;13107;51.304;6.866;2022-12-07T18:32:21;4.80;99.90
25128;DHT22;13107;51.304;6.866;2022-12-07T18:36:23;4.80;99.90
25128;DHT22;13107;51.304;6.866;2022-12-07T18:40:26;4.80;99.90
25128;DHT22;13107;51.304;6.866;2022-12-07T18:44:27;4.80;99.90
25128;DHT22;13107;51.304;6.866;2022-12-07T18:48:29;4.90;99.90
25128;DHT22;13107;51.304;6.866;2022-12-07T18:52:31;4.80;99.90
25128;DHT22;13107;51.304;6.866;2022-12-07T18:56:32;4.90;99.90
25128;DHT22;13107;51.304;6.866;2022-12-07T19:00:34;4.90;99.90
25128;DHT22;13107;51.304;6.866;2022-12-07T19:04:36;5.00;99.90
25128;DHT22;13107;51.304;6.866;2022-12-07T19:08:38;4.90;99.90
25128;DHT22;13107;51.304;6.866;2022-12-07T19:12:40;4.90;99.90
25128;DHT22;13107;51.304;6.866;2022-12-07T19:16:43;4.90;99.90
25128;DHT22;13107;51.304;6.866;2022-12-07T19:20:45;4.90;99.90
25128;DHT22;13107;51.304;6.866;2022-12-07T19:24:49;4.90;99.90
25128;DHT22;13107;51.304;6.866;2022-12-07T19:28:51;4.80;99.90
25128;DHT22;13107;51.304;6.866;2022-12-07T19:32:53;4.70;99.90
25128;DHT22;13107;51.304;6.866;2022-12-07T19:36:54;4.80;99.90
25128;DHT22;13107;51.304;6.866;2022-12-07T19:41:04;4.70;99.90
25128;DHT22;13107;51.304;6.866;2022-12-07T19:45:06;4.70;99.90
25128;DHT22;13107;51.304;6.866;2022-12-07T19:49:08;4.70;99.90
25128;DHT22;13107;51.304;6.866;2022-12-07T19:53:10;4.90;99.90
25128;DHT22;13107;51.304;6.866;2022-12-07T19:57:12;4.80;99.90
25128;DHT22;13107;51.304;6.866;2022-12-07T20:01:16;4.80;99.90
25128;DHT22;13107;51.304;6.866;2022-12-07T20:05:18;4.70;99.90
25128;DHT22;13107;51.304;6.866;2022-12-07T20:09:22;4.70;99.90
25128;DHT22;13107;51.304;6.866;2022-12-07T20:13:24;4.60;99.90
25128;DHT22;13107;51.304;6.866;2022-12-07T20:17:29;4.60;99.90
25128;DHT22;13107;51.304;6.866;2022-12-07T20:21:31;4.60;99.90
25128;DHT22;13107;51.304;6.866;2022-12-07T20:25:35;4.60;99.90
25128;DHT22;13107;51.304;6.866;2022-12-07T20:29:37;4.60;99.90
25128;DHT22;13107;51.304;6.866;2022-12-07T20:33:39;4.50;99.90
25128;DHT22;13107;51.304;6.866;2022-12-07T20:37:41;4.60;99.90
25128;DHT22;13107;51.304;6.866;2022-12-07T20:41:42;4.60;99.90
25128;DHT22;13107;51.304;6.866;2022-12-07T20:46:03;4.50;99.90
25128;DHT22;13107;51.304;6.866;2022-12-07T20:50:05;4.40;99.90
25128;DHT22;13107;51.304;6.866;2022-12-07T20:54:07;4.40;99.90
25128;DHT22;13107;51.304;6.866;2022-12-07T20:58:09;4.40;99.90
25128;DHT22;13107;51.304;6.866;2022-12-07T21:02:12;4.50;99.90
25128;DHT22;13107;51.304;6.866;2022-12-07T21:06:15;4.30;99.90
25128;DHT22;13107;51.304;6.866;2022-12-07T21:10:18;4.40;99.90
25128;DHT22;13107;51.304;6.866;2022-12-07T21:14:20;4.40;99.90
25128;DHT22;13107;51.304;6.866;2022-12-07T21:18:22;4.30;99.90
25128;DHT22;13107;51.304;6.866;2022-12-07T21:22:24;4.40;99.90
25128;DHT22;13107;51.304;6.866;2022-12-07T21:26:26;4.30;99.90
25128;DHT22;13107;51.304;6.866;2022-12-07T21:30:28;4.30;99.90
25128;DHT22;13107;51.304;6.866;2022-12-07T21:34:50;4.30;99.90
25128;DHT22;13107;51.304;6.866;2022-12-07T21:38:52;4.30;99.90
25128;DHT22;13107;51.304;6.866;2022-12-07T21:42:53;4.30;99.90
25128;DHT22;13107;51.304;6.866;2022-12-07T21:46:55;4.20;99.90
25128;DHT22;13107;51.304;6.866;2022-12-07T21:51:08;4.20;99.90
25128;DHT22;13107;51.304;6.866;2022-12-07T21:55:10;4.20;99.90
25128;DHT22;13107;51.304;6.866;2022-12-07T21:59:14;4.20;99.90
25128;DHT22;13107;51.304;6.866;2022-12-07T22:03:16;4.20;99.90
25128;DHT22;13107;51.304;6.866;2022-12-07T22:07:18;4.20;99.90
25128;DHT22;13107;51.304;6.866;2022-12-07T22:11:19;4.10;99.90
25128;DHT22;13107;51.304;6.866;2022-12-07T22:15:21;4.10;99.90
25128;DHT22;13107;51.304;6.866;2022-12-07T22:19:24;4.20;99.90
25128;DHT22;13107;51.304;6.866;2022-12-07T22:23:26;4.20;99.90
25128;DHT22;13107;51.304;6.866;2022-12-07T22:27:27;4.20;99.90
25128;DHT22;13107;51.304;6.866;2022-12-07T22:31:29;4.20;99.90
25128;DHT22;13107;51.304;6.866;2022-12-07T22:35:31;4.30;99.90
25128;DHT22;13107;51.304;6.866;2022-12-07T22:39:33;4.30;99.90
25128;DHT22;13107;51.304;6.866;2022-12-07T22:43:34;4.30;99.90
25128;DHT22;13107;51.304;6.866;2022-12-07T22:47:37;4.20;99.90
25128;DHT22;13107;51.304;6.866;2022-12-07T22:51:40;4.30;99.90
25128;DHT22;13107;51.304;6.866;2022-12-07T22:55:42;4.30;99.90
25128;DHT22;13107;51.304;6.866;2022-12-07T22:59:44;4.40;99.90
25128;DHT22;13107;51.304;6.866;2022-12-07T23:03:46;4.40;99.90
25128;DHT22;13107;51.304;6.866;2022-12-07T23:07:47;4.40;99.90
25128;DHT22;13107;51.304;6.866;2022-12-07T23:11:49;4.40;99.90
25128;DHT22;13107;51.304;6.866;2022-12-07T23:16:13;4.40;99.90
25128;DHT22;13107;51.304;6.866;2022-12-07T23:20:15;4.40;99.90
25128;DHT22;13107;51.304;6.866;2022-12-07T23:24:18;4.30;99.90
25128;DHT22;13107;51.304;6.866;2022-12-07T23:28:19;4.30;99.90
25128;DHT22;13107;51.304;6.866;2022-12-07T23:32:21;4.30;99.90
25128;DHT22;13107;51.304;6.866;2022-12-07T23:36:25;4.30;99.90
25128;DHT22;13107;51.304;6.866;2022-12-07T23:40:27;4.20;99.90
25128;DHT22;13107;51.304;6.866;2022-12-07T23:44:28;4.30;99.90
25128;DHT22;13107;51.304;6.866;2022-12-07T23:48:30;4.20;99.90
25128;DHT22;13107;51.304;6.866;2022-12-07T23:52:32;4.20;99.90
25128;DHT22;13107;51.304;6.866;2022-12-07T23:56:34;4.20;99.90
